sensor_id;sensor_type;location;lat;lon;timestamp;P1;durP1;ratioP1;P2;durP2;ratioP2
31402;SDS011;18039;52.188;21.024;2023-06-22T00:01:21;39.00;;;31.42;;
31402;SDS011;18039;52.188;21.024;2023-06-22T00:03:51;35.67;;;30.33;;
31402;SDS011;18039;52.188;21.024;2023-06-22T00:06:18;37.42;;;30.50;;
31402;SDS011;18039;52.188;21.024;2023-06-22T00:08:46;38.13;;;30.20;;
31402;SDS011;18039;52.188;21.024;2023-06-22T00:11:14;34.70;;;29.92;;
31402;SDS011;18039;52.188;21.024;2023-06-22T00:13:41;34.92;;;31.02;;
31402;SDS011;18039;52.188;21.024;2023-06-22T00:16:08;40.20;;;32.00;;
31402;SDS011;18039;52.188;21.024;2023-06-22T00:18:35;40.58;;;33.03;;
31402;SDS011;18039;52.188;21.024;2023-06-22T00:21:03;37.53;;;32.15;;
31402;SDS011;18039;52.188;21.024;2023-06-22T00:23:31;36.80;;;29.77;;
31402;SDS011;18039;52.188;21.024;2023-06-22T00:26:02;38.88;;;32.50;;
31402;SDS011;18039;52.188;21.024;2023-06-22T00:28:29;40.00;;;32.67;;
31402;SDS011;18039;52.188;21.024;2023-06-22T00:30:57;40.38;;;31.23;;
31402;SDS011;18039;52.188;21.024;2023-06-22T00:33:25;42.92;;;33.47;;
31402;SDS011;18039;52.188;21.024;2023-06-22T00:35:52;45.70;;;32.22;;
31402;SDS011;18039;52.188;21.024;2023-06-22T00:38:20;38.90;;;33.13;;
31402;SDS011;18039;52.188;21.024;2023-06-22T00:40:48;40.80;;;31.83;;
31402;SDS011;18039;52.188;21.024;2023-06-22T00:43:15;37.92;;;31.20;;
31402;SDS011;18039;52.188;21.024;2023-06-22T00:45:42;42.50;;;32.92;;
31402;SDS011;18039;52.188;21.024;2023-06-22T00:48:09;38.80;;;32.17;;
31402;SDS011;18039;52.188;21.024;2023-06-22T00:50:37;41.05;;;33.30;;
31402;SDS011;18039;52.188;21.024;2023-06-22T00:53:06;43.08;;;33.75;;
31402;SDS011;18039;52.188;21.024;2023-06-22T00:55:41;43.28;;;32.67;;
31402;SDS011;18039;52.188;21.024;2023-06-22T00:58:19;43.03;;;33.15;;
31402;SDS011;18039;52.188;21.024;2023-06-22T01:00:49;40.13;;;33.10;;
31402;SDS011;18039;52.188;21.024;2023-06-22T01:03:16;44.33;;;32.45;;
31402;SDS011;18039;52.188;21.024;2023-06-22T01:05:44;38.42;;;32.15;;
31402;SDS011;18039;52.188;21.024;2023-06-22T01:08:23;40.70;;;33.55;;
31402;SDS011;18039;52.188;21.024;2023-06-22T01:11:16;42.95;;;32.78;;
31402;SDS011;18039;52.188;21.024;2023-06-22T01:16:30;38.05;;;31.35;;
31402;SDS011;18039;52.188;21.024;2023-06-22T01:19:15;42.20;;;33.20;;
31402;SDS011;18039;52.188;21.024;2023-06-22T01:21:45;36.20;;;30.85;;
31402;SDS011;18039;52.188;21.024;2023-06-22T01:24:18;40.60;;;32.22;;
31402;SDS011;18039;52.188;21.024;2023-06-22T01:26:54;40.95;;;32.80;;
31402;SDS011;18039;52.188;21.024;2023-06-22T01:29:32;45.08;;;33.22;;
31402;SDS011;18039;52.188;21.024;2023-06-22T01:32:00;38.35;;;32.25;;
31402;SDS011;18039;52.188;21.024;2023-06-22T01:34:34;42.90;;;33.00;;
31402;SDS011;18039;52.188;21.024;2023-06-22T01:37:05;42.97;;;33.88;;
31402;SDS011;18039;52.188;21.024;2023-06-22T01:39:33;41.95;;;33.75;;
31402;SDS011;18039;52.188;21.024;2023-06-22T01:42:02;40.90;;;32.92;;
31402;SDS011;18039;52.188;21.024;2023-06-22T01:44:31;42.08;;;33.35;;
31402;SDS011;18039;52.188;21.024;2023-06-22T01:47:00;38.42;;;32.95;;
31402;SDS011;18039;52.188;21.024;2023-06-22T01:49:28;41.78;;;31.92;;
31402;SDS011;18039;52.188;21.024;2023-06-22T01:51:56;40.70;;;32.03;;
31402;SDS011;18039;52.188;21.024;2023-06-22T01:54:24;43.35;;;33.05;;
31402;SDS011;18039;52.188;21.024;2023-06-22T01:56:51;42.42;;;33.47;;
31402;SDS011;18039;52.188;21.024;2023-06-22T01:59:25;43.72;;;34.28;;
31402;SDS011;18039;52.188;21.024;2023-06-22T02:02:04;42.08;;;33.60;;
31402;SDS011;18039;52.188;21.024;2023-06-22T02:04:48;45.15;;;35.17;;
31402;SDS011;18039;52.188;21.024;2023-06-22T02:07:22;42.88;;;34.58;;
31402;SDS011;18039;52.188;21.024;2023-06-22T02:09:51;49.63;;;38.35;;
31402;SDS011;18039;52.188;21.024;2023-06-22T02:12:21;45.40;;;36.00;;
31402;SDS011;18039;52.188;21.024;2023-06-22T02:14:51;48.90;;;38.83;;
31402;SDS011;18039;52.188;21.024;2023-06-22T02:17:19;46.42;;;36.65;;
31402;SDS011;18039;52.188;21.024;2023-06-22T02:19:46;48.10;;;35.80;;
31402;SDS011;18039;52.188;21.024;2023-06-22T02:22:14;47.42;;;37.25;;
31402;SDS011;18039;52.188;21.024;2023-06-22T02:24:43;49.35;;;38.33;;
31402;SDS011;18039;52.188;21.024;2023-06-22T02:27:11;48.90;;;37.38;;
31402;SDS011;18039;52.188;21.024;2023-06-22T02:29:39;51.65;;;38.55;;
31402;SDS011;18039;52.188;21.024;2023-06-22T02:32:08;53.00;;;40.13;;
31402;SDS011;18039;52.188;21.024;2023-06-22T02:34:34;51.70;;;39.63;;
31402;SDS011;18039;52.188;21.024;2023-06-22T02:37:04;53.33;;;41.75;;
31402;SDS011;18039;52.188;21.024;2023-06-22T02:39:31;56.10;;;41.45;;
31402;SDS011;18039;52.188;21.024;2023-06-22T02:41:59;54.05;;;42.72;;
31402;SDS011;18039;52.188;21.024;2023-06-22T02:44:26;53.35;;;42.67;;
31402;SDS011;18039;52.188;21.024;2023-06-22T02:46:53;54.22;;;42.53;;
31402;SDS011;18039;52.188;21.024;2023-06-22T02:49:21;64.75;;;44.00;;
31402;SDS011;18039;52.188;21.024;2023-06-22T02:51:48;62.70;;;44.45;;
31402;SDS011;18039;52.188;21.024;2023-06-22T02:54:19;63.20;;;45.53;;
31402;SDS011;18039;52.188;21.024;2023-06-22T02:56:49;67.05;;;46.05;;
31402;SDS011;18039;52.188;21.024;2023-06-22T02:59:18;64.68;;;46.97;;
31402;SDS011;18039;52.188;21.024;2023-06-22T03:01:53;69.43;;;49.60;;
31402;SDS011;18039;52.188;21.024;2023-06-22T03:04:25;67.10;;;47.75;;
31402;SDS011;18039;52.188;21.024;2023-06-22T03:06:53;75.40;;;50.88;;
31402;SDS011;18039;52.188;21.024;2023-06-22T03:09:20;69.53;;;50.13;;
31402;SDS011;18039;52.188;21.024;2023-06-22T03:11:48;77.47;;;51.70;;
31402;SDS011;18039;52.188;21.024;2023-06-22T03:14:16;79.18;;;51.20;;
31402;SDS011;18039;52.188;21.024;2023-06-22T03:16:43;75.22;;;50.70;;
31402;SDS011;18039;52.188;21.024;2023-06-22T03:19:11;74.97;;;50.28;;
31402;SDS011;18039;52.188;21.024;2023-06-22T03:21:39;70.28;;;50.17;;
31402;SDS011;18039;52.188;21.024;2023-06-22T03:24:07;71.32;;;49.38;;
31402;SDS011;18039;52.188;21.024;2023-06-22T03:26:34;77.50;;;50.47;;
31402;SDS011;18039;52.188;21.024;2023-06-22T03:29:02;70.05;;;49.70;;
31402;SDS011;18039;52.188;21.024;2023-06-22T03:31:30;70.00;;;48.53;;
31402;SDS011;18039;52.188;21.024;2023-06-22T03:33:57;70.70;;;48.65;;
31402;SDS011;18039;52.188;21.024;2023-06-22T03:36:25;65.35;;;46.35;;
31402;SDS011;18039;52.188;21.024;2023-06-22T03:38:52;71.78;;;47.42;;
31402;SDS011;18039;52.188;21.024;2023-06-22T03:41:19;70.13;;;47.03;;
31402;SDS011;18039;52.188;21.024;2023-06-22T03:43:47;66.90;;;45.83;;
31402;SDS011;18039;52.188;21.024;2023-06-22T03:46:15;68.80;;;46.63;;
31402;SDS011;18039;52.188;21.024;2023-06-22T03:48:42;63.15;;;44.10;;
31402;SDS011;18039;52.188;21.024;2023-06-22T03:51:10;67.03;;;45.00;;
31402;SDS011;18039;52.188;21.024;2023-06-22T03:53:37;63.30;;;44.15;;
31402;SDS011;18039;52.188;21.024;2023-06-22T03:56:04;62.58;;;43.53;;
31402;SDS011;18039;52.188;21.024;2023-06-22T03:58:32;61.20;;;42.22;;
31402;SDS011;18039;52.188;21.024;2023-06-22T04:01:00;56.00;;;41.90;;
31402;SDS011;18039;52.188;21.024;2023-06-22T04:03:27;62.45;;;42.30;;
31402;SDS011;18039;52.188;21.024;2023-06-22T04:05:55;57.00;;;40.28;;
31402;SDS011;18039;52.188;21.024;2023-06-22T04:08:22;49.35;;;39.17;;
31402;SDS011;18039;52.188;21.024;2023-06-22T04:10:50;53.30;;;39.58;;
31402;SDS011;18039;52.188;21.024;2023-06-22T04:13:17;51.63;;;38.03;;
31402;SDS011;18039;52.188;21.024;2023-06-22T04:15:45;51.25;;;37.75;;
31402;SDS011;18039;52.188;21.024;2023-06-22T04:18:12;53.03;;;39.85;;
31402;SDS011;18039;52.188;21.024;2023-06-22T04:20:40;50.88;;;37.67;;
31402;SDS011;18039;52.188;21.024;2023-06-22T04:23:07;46.83;;;35.45;;
31402;SDS011;18039;52.188;21.024;2023-06-22T04:25:35;49.15;;;35.80;;
31402;SDS011;18039;52.188;21.024;2023-06-22T04:28:03;45.92;;;35.40;;
31402;SDS011;18039;52.188;21.024;2023-06-22T04:30:32;50.25;;;35.78;;
31402;SDS011;18039;52.188;21.024;2023-06-22T04:33:00;44.38;;;34.33;;
31402;SDS011;18039;52.188;21.024;2023-06-22T04:35:27;47.42;;;33.95;;
31402;SDS011;18039;52.188;21.024;2023-06-22T04:37:58;45.35;;;34.33;;
31402;SDS011;18039;52.188;21.024;2023-06-22T04:40:27;44.83;;;34.03;;
31402;SDS011;18039;52.188;21.024;2023-06-22T04:42:54;46.38;;;34.40;;
31402;SDS011;18039;52.188;21.024;2023-06-22T04:45:21;44.90;;;33.47;;
31402;SDS011;18039;52.188;21.024;2023-06-22T04:47:49;42.83;;;32.15;;
31402;SDS011;18039;52.188;21.024;2023-06-22T04:50:16;42.78;;;33.72;;
31402;SDS011;18039;52.188;21.024;2023-06-22T04:52:44;41.25;;;31.55;;
31402;SDS011;18039;52.188;21.024;2023-06-22T04:55:12;41.70;;;32.55;;
31402;SDS011;18039;52.188;21.024;2023-06-22T04:57:41;46.60;;;33.50;;
31402;SDS011;18039;52.188;21.024;2023-06-22T05:00:12;43.60;;;32.88;;
31402;SDS011;18039;52.188;21.024;2023-06-22T05:02:40;42.78;;;32.13;;
31402;SDS011;18039;52.188;21.024;2023-06-22T05:05:09;45.05;;;31.08;;
31402;SDS011;18039;52.188;21.024;2023-06-22T05:07:44;43.72;;;31.77;;
31402;SDS011;18039;52.188;21.024;2023-06-22T05:10:13;44.47;;;32.25;;
31402;SDS011;18039;52.188;21.024;2023-06-22T05:12:41;44.40;;;33.25;;
31402;SDS011;18039;52.188;21.024;2023-06-22T05:15:09;43.42;;;33.00;;
31402;SDS011;18039;52.188;21.024;2023-06-22T05:17:36;41.10;;;31.65;;
31402;SDS011;18039;52.188;21.024;2023-06-22T05:20:11;44.55;;;33.03;;
31402;SDS011;18039;52.188;21.024;2023-06-22T05:22:39;40.85;;;30.95;;
31402;SDS011;18039;52.188;21.024;2023-06-22T05:25:08;44.60;;;31.75;;
31402;SDS011;18039;52.188;21.024;2023-06-22T05:27:36;45.72;;;32.35;;
31402;SDS011;18039;52.188;21.024;2023-06-22T05:30:07;39.65;;;29.27;;
31402;SDS011;18039;52.188;21.024;2023-06-22T05:32:36;41.92;;;29.73;;
31402;SDS011;18039;52.188;21.024;2023-06-22T05:35:04;41.35;;;30.38;;
31402;SDS011;18039;52.188;21.024;2023-06-22T05:37:32;39.38;;;30.38;;
31402;SDS011;18039;52.188;21.024;2023-06-22T05:39:59;40.85;;;28.75;;
31402;SDS011;18039;52.188;21.024;2023-06-22T05:42:26;37.85;;;29.13;;
31402;SDS011;18039;52.188;21.024;2023-06-22T05:44:53;38.88;;;29.25;;
31402;SDS011;18039;52.188;21.024;2023-06-22T05:47:21;40.33;;;29.60;;
31402;SDS011;18039;52.188;21.024;2023-06-22T05:49:49;38.90;;;28.02;;
31402;SDS011;18039;52.188;21.024;2023-06-22T05:52:17;40.83;;;29.52;;
31402;SDS011;18039;52.188;21.024;2023-06-22T05:54:44;37.20;;;27.95;;
31402;SDS011;18039;52.188;21.024;2023-06-22T05:57:11;41.10;;;30.13;;
31402;SDS011;18039;52.188;21.024;2023-06-22T05:59:39;36.70;;;27.60;;
31402;SDS011;18039;52.188;21.024;2023-06-22T06:02:06;39.97;;;28.05;;
31402;SDS011;18039;52.188;21.024;2023-06-22T06:04:34;36.35;;;27.90;;
31402;SDS011;18039;52.188;21.024;2023-06-22T06:07:01;34.22;;;26.35;;
31402;SDS011;18039;52.188;21.024;2023-06-22T06:09:29;35.63;;;27.15;;
31402;SDS011;18039;52.188;21.024;2023-06-22T06:11:56;34.00;;;25.85;;
31402;SDS011;18039;52.188;21.024;2023-06-22T06:14:23;30.88;;;24.52;;
31402;SDS011;18039;52.188;21.024;2023-06-22T06:16:50;37.60;;;26.17;;
31402;SDS011;18039;52.188;21.024;2023-06-22T06:19:18;35.90;;;25.67;;
31402;SDS011;18039;52.188;21.024;2023-06-22T06:21:45;31.90;;;26.13;;
31402;SDS011;18039;52.188;21.024;2023-06-22T06:24:13;34.70;;;26.48;;
31402;SDS011;18039;52.188;21.024;2023-06-22T06:26:40;33.97;;;25.65;;
31402;SDS011;18039;52.188;21.024;2023-06-22T06:29:09;37.30;;;26.27;;
31402;SDS011;18039;52.188;21.024;2023-06-22T06:31:37;31.55;;;25.17;;
31402;SDS011;18039;52.188;21.024;2023-06-22T06:34:04;35.05;;;25.75;;
31402;SDS011;18039;52.188;21.024;2023-06-22T06:36:31;36.33;;;26.65;;
31402;SDS011;18039;52.188;21.024;2023-06-22T06:38:58;31.00;;;24.10;;
31402;SDS011;18039;52.188;21.024;2023-06-22T06:41:25;30.63;;;23.58;;
31402;SDS011;18039;52.188;21.024;2023-06-22T06:43:53;32.60;;;24.15;;
31402;SDS011;18039;52.188;21.024;2023-06-22T06:46:20;32.35;;;22.73;;
31402;SDS011;18039;52.188;21.024;2023-06-22T06:48:48;31.45;;;23.20;;
31402;SDS011;18039;52.188;21.024;2023-06-22T06:51:15;31.95;;;23.83;;
31402;SDS011;18039;52.188;21.024;2023-06-22T06:53:43;33.20;;;21.77;;
31402;SDS011;18039;52.188;21.024;2023-06-22T06:56:10;31.02;;;23.83;;
31402;SDS011;18039;52.188;21.024;2023-06-22T06:58:40;29.20;;;21.20;;
31402;SDS011;18039;52.188;21.024;2023-06-22T07:01:09;27.55;;;20.10;;
31402;SDS011;18039;52.188;21.024;2023-06-22T07:03:36;26.27;;;19.65;;
31402;SDS011;18039;52.188;21.024;2023-06-22T07:06:03;29.80;;;20.52;;
31402;SDS011;18039;52.188;21.024;2023-06-22T07:08:31;25.58;;;20.33;;
31402;SDS011;18039;52.188;21.024;2023-06-22T07:10:58;23.80;;;19.08;;
31402;SDS011;18039;52.188;21.024;2023-06-22T07:13:27;24.02;;;19.27;;
31402;SDS011;18039;52.188;21.024;2023-06-22T07:15:55;24.33;;;19.35;;
31402;SDS011;18039;52.188;21.024;2023-06-22T07:18:23;25.15;;;18.60;;
31402;SDS011;18039;52.188;21.024;2023-06-22T07:20:51;25.83;;;19.48;;
31402;SDS011;18039;52.188;21.024;2023-06-22T07:23:18;25.23;;;17.75;;
31402;SDS011;18039;52.188;21.024;2023-06-22T07:25:45;24.88;;;18.10;;
31402;SDS011;18039;52.188;21.024;2023-06-22T07:28:13;24.63;;;16.55;;
31402;SDS011;18039;52.188;21.024;2023-06-22T07:30:40;21.55;;;16.13;;
31402;SDS011;18039;52.188;21.024;2023-06-22T07:33:07;17.98;;;13.90;;
31402;SDS011;18039;52.188;21.024;2023-06-22T07:35:35;15.55;;;12.70;;
31402;SDS011;18039;52.188;21.024;2023-06-22T07:38:03;15.75;;;12.05;;
31402;SDS011;18039;52.188;21.024;2023-06-22T07:40:32;20.85;;;13.85;;
31402;SDS011;18039;52.188;21.024;2023-06-22T07:43:01;18.45;;;13.35;;
31402;SDS011;18039;52.188;21.024;2023-06-22T07:45:28;16.05;;;12.23;;
31402;SDS011;18039;52.188;21.024;2023-06-22T07:47:56;15.60;;;10.40;;
31402;SDS011;18039;52.188;21.024;2023-06-22T07:50:23;18.95;;;11.00;;
31402;SDS011;18039;52.188;21.024;2023-06-22T07:52:51;15.45;;;10.32;;
31402;SDS011;18039;52.188;21.024;2023-06-22T07:55:19;12.90;;;10.35;;
31402;SDS011;18039;52.188;21.024;2023-06-22T07:57:48;13.13;;;10.35;;
31402;SDS011;18039;52.188;21.024;2023-06-22T08:00:19;10.88;;;8.60;;
31402;SDS011;18039;52.188;21.024;2023-06-22T08:02:47;12.40;;;8.70;;
31402;SDS011;18039;52.188;21.024;2023-06-22T08:05:15;12.32;;;8.40;;
31402;SDS011;18039;52.188;21.024;2023-06-22T08:07:48;13.05;;;9.02;;
31402;SDS011;18039;52.188;21.024;2023-06-22T08:10:17;14.55;;;8.20;;
31402;SDS011;18039;52.188;21.024;2023-06-22T08:12:45;11.30;;;8.75;;
31402;SDS011;18039;52.188;21.024;2023-06-22T08:15:12;10.80;;;7.90;;
31402;SDS011;18039;52.188;21.024;2023-06-22T08:17:40;9.35;;;7.47;;
31402;SDS011;18039;52.188;21.024;2023-06-22T08:20:07;10.10;;;6.60;;
31402;SDS011;18039;52.188;21.024;2023-06-22T08:22:37;10.55;;;7.13;;
31402;SDS011;18039;52.188;21.024;2023-06-22T08:25:07;9.07;;;6.68;;
31402;SDS011;18039;52.188;21.024;2023-06-22T08:27:35;8.15;;;6.45;;
31402;SDS011;18039;52.188;21.024;2023-06-22T08:30:03;9.65;;;6.85;;
31402;SDS011;18039;52.188;21.024;2023-06-22T08:32:31;11.15;;;7.05;;
31402;SDS011;18039;52.188;21.024;2023-06-22T08:35:02;21.77;;;6.45;;
31402;SDS011;18039;52.188;21.024;2023-06-22T08:37:29;10.90;;;6.10;;
31402;SDS011;18039;52.188;21.024;2023-06-22T08:40:04;11.80;;;6.82;;
31402;SDS011;18039;52.188;21.024;2023-06-22T08:42:40;12.68;;;6.88;;
31402;SDS011;18039;52.188;21.024;2023-06-22T08:45:09;9.55;;;6.43;;
31402;SDS011;18039;52.188;21.024;2023-06-22T08:47:37;10.35;;;6.78;;
31402;SDS011;18039;52.188;21.024;2023-06-22T08:50:05;9.55;;;7.30;;
31402;SDS011;18039;52.188;21.024;2023-06-22T08:52:33;10.75;;;5.78;;
31402;SDS011;18039;52.188;21.024;2023-06-22T08:55:00;6.72;;;5.38;;
31402;SDS011;18039;52.188;21.024;2023-06-22T08:57:28;9.25;;;6.75;;
31402;SDS011;18039;52.188;21.024;2023-06-22T08:59:57;15.18;;;6.22;;
31402;SDS011;18039;52.188;21.024;2023-06-22T09:02:26;7.78;;;5.57;;
31402;SDS011;18039;52.188;21.024;2023-06-22T09:04:58;9.38;;;6.07;;
31402;SDS011;18039;52.188;21.024;2023-06-22T09:07:26;10.90;;;5.38;;
31402;SDS011;18039;52.188;21.024;2023-06-22T09:09:56;8.23;;;5.53;;
31402;SDS011;18039;52.188;21.024;2023-06-22T09:12:23;8.05;;;4.78;;
31402;SDS011;18039;52.188;21.024;2023-06-22T09:14:54;9.23;;;5.50;;
31402;SDS011;18039;52.188;21.024;2023-06-22T09:17:21;7.45;;;4.80;;
31402;SDS011;18039;52.188;21.024;2023-06-22T09:19:49;9.60;;;4.75;;
31402;SDS011;18039;52.188;21.024;2023-06-22T09:22:17;12.05;;;5.13;;
31402;SDS011;18039;52.188;21.024;2023-06-22T09:24:44;6.25;;;4.40;;
31402;SDS011;18039;52.188;21.024;2023-06-22T09:27:12;8.55;;;4.45;;
31402;SDS011;18039;52.188;21.024;2023-06-22T09:29:39;7.25;;;4.47;;
31402;SDS011;18039;52.188;21.024;2023-06-22T09:32:06;6.70;;;4.28;;
31402;SDS011;18039;52.188;21.024;2023-06-22T09:34:34;15.98;;;7.57;;
31402;SDS011;18039;52.188;21.024;2023-06-22T09:37:02;6.45;;;3.65;;
31402;SDS011;18039;52.188;21.024;2023-06-22T09:39:29;7.65;;;3.80;;
31402;SDS011;18039;52.188;21.024;2023-06-22T09:42:00;6.82;;;4.28;;
31402;SDS011;18039;52.188;21.024;2023-06-22T09:44:28;6.05;;;4.32;;
31402;SDS011;18039;52.188;21.024;2023-06-22T09:46:55;6.75;;;4.00;;
31402;SDS011;18039;52.188;21.024;2023-06-22T09:49:22;9.40;;;4.25;;
31402;SDS011;18039;52.188;21.024;2023-06-22T09:52:10;8.13;;;4.47;;
31402;SDS011;18039;52.188;21.024;2023-06-22T09:54:38;7.75;;;4.43;;
31402;SDS011;18039;52.188;21.024;2023-06-22T09:57:05;6.72;;;4.00;;
31402;SDS011;18039;52.188;21.024;2023-06-22T09:59:32;7.45;;;4.03;;
31402;SDS011;18039;52.188;21.024;2023-06-22T10:02:00;7.22;;;4.43;;
31402;SDS011;18039;52.188;21.024;2023-06-22T10:04:27;6.90;;;4.15;;
31402;SDS011;18039;52.188;21.024;2023-06-22T10:06:55;7.72;;;3.90;;
31402;SDS011;18039;52.188;21.024;2023-06-22T10:09:22;7.95;;;4.25;;
31402;SDS011;18039;52.188;21.024;2023-06-22T10:11:50;6.38;;;3.60;;
31402;SDS011;18039;52.188;21.024;2023-06-22T10:14:17;11.57;;;4.07;;
31402;SDS011;18039;52.188;21.024;2023-06-22T10:16:44;7.88;;;3.95;;
31402;SDS011;18039;52.188;21.024;2023-06-22T10:19:11;9.20;;;5.28;;
31402;SDS011;18039;52.188;21.024;2023-06-22T10:21:39;5.63;;;4.18;;
31402;SDS011;18039;52.188;21.024;2023-06-22T10:24:06;7.30;;;4.03;;
31402;SDS011;18039;52.188;21.024;2023-06-22T10:26:34;4.78;;;3.60;;
31402;SDS011;18039;52.188;21.024;2023-06-22T10:29:02;7.50;;;3.63;;
31402;SDS011;18039;52.188;21.024;2023-06-22T10:31:33;7.63;;;4.07;;
31402;SDS011;18039;52.188;21.024;2023-06-22T10:34:00;7.18;;;3.67;;
31402;SDS011;18039;52.188;21.024;2023-06-22T10:36:28;6.22;;;4.03;;
31402;SDS011;18039;52.188;21.024;2023-06-22T10:38:55;8.77;;;4.03;;
31402;SDS011;18039;52.188;21.024;2023-06-22T10:41:23;6.68;;;4.00;;
31402;SDS011;18039;52.188;21.024;2023-06-22T10:43:50;7.50;;;3.97;;
31402;SDS011;18039;52.188;21.024;2023-06-22T10:46:17;7.05;;;4.47;;
31402;SDS011;18039;52.188;21.024;2023-06-22T10:48:45;10.68;;;4.43;;
31402;SDS011;18039;52.188;21.024;2023-06-22T10:51:13;6.55;;;4.55;;
31402;SDS011;18039;52.188;21.024;2023-06-22T10:53:40;8.07;;;4.20;;
31402;SDS011;18039;52.188;21.024;2023-06-22T10:56:08;8.00;;;4.38;;
31402;SDS011;18039;52.188;21.024;2023-06-22T10:58:35;6.07;;;4.70;;
31402;SDS011;18039;52.188;21.024;2023-06-22T11:01:03;8.93;;;4.40;;
31402;SDS011;18039;52.188;21.024;2023-06-22T11:03:30;16.58;;;5.03;;
31402;SDS011;18039;52.188;21.024;2023-06-22T11:05:58;11.45;;;4.13;;
31402;SDS011;18039;52.188;21.024;2023-06-22T11:08:25;6.43;;;4.18;;
31402;SDS011;18039;52.188;21.024;2023-06-22T11:10:52;6.50;;;3.90;;
31402;SDS011;18039;52.188;21.024;2023-06-22T11:13:19;12.95;;;3.88;;
31402;SDS011;18039;52.188;21.024;2023-06-22T11:15:47;4.80;;;3.92;;
31402;SDS011;18039;52.188;21.024;2023-06-22T11:18:14;7.30;;;3.88;;
31402;SDS011;18039;52.188;21.024;2023-06-22T11:20:42;12.00;;;4.05;;
31402;SDS011;18039;52.188;21.024;2023-06-22T11:23:09;6.25;;;4.07;;
31402;SDS011;18039;52.188;21.024;2023-06-22T11:25:38;7.25;;;4.25;;
31402;SDS011;18039;52.188;21.024;2023-06-22T11:28:06;8.45;;;4.55;;
31402;SDS011;18039;52.188;21.024;2023-06-22T11:30:33;6.78;;;4.30;;
31402;SDS011;18039;52.188;21.024;2023-06-22T11:33:01;7.32;;;4.18;;
31402;SDS011;18039;52.188;21.024;2023-06-22T11:35:29;9.43;;;4.35;;
31402;SDS011;18039;52.188;21.024;2023-06-22T11:37:56;10.02;;;4.60;;
31402;SDS011;18039;52.188;21.024;2023-06-22T11:40:23;11.18;;;3.97;;
31402;SDS011;18039;52.188;21.024;2023-06-22T11:42:51;9.32;;;4.13;;
31402;SDS011;18039;52.188;21.024;2023-06-22T11:45:19;6.95;;;4.47;;
31402;SDS011;18039;52.188;21.024;2023-06-22T11:47:47;11.50;;;5.07;;
31402;SDS011;18039;52.188;21.024;2023-06-22T11:50:14;6.85;;;4.00;;
31402;SDS011;18039;52.188;21.024;2023-06-22T11:52:41;9.00;;;4.45;;
31402;SDS011;18039;52.188;21.024;2023-06-22T11:55:09;7.60;;;4.30;;
31402;SDS011;18039;52.188;21.024;2023-06-22T11:57:36;7.95;;;4.15;;
31402;SDS011;18039;52.188;21.024;2023-06-22T12:00:04;7.15;;;4.13;;
31402;SDS011;18039;52.188;21.024;2023-06-22T12:02:43;5.78;;;4.05;;
31402;SDS011;18039;52.188;21.024;2023-06-22T12:05:12;9.05;;;4.70;;
31402;SDS011;18039;52.188;21.024;2023-06-22T12:07:40;7.90;;;4.43;;
31402;SDS011;18039;52.188;21.024;2023-06-22T12:10:08;6.90;;;4.45;;
31402;SDS011;18039;52.188;21.024;2023-06-22T12:12:35;14.60;;;4.78;;
31402;SDS011;18039;52.188;21.024;2023-06-22T12:15:03;6.05;;;4.20;;
31402;SDS011;18039;52.188;21.024;2023-06-22T12:17:31;11.77;;;4.72;;
31402;SDS011;18039;52.188;21.024;2023-06-22T12:19:58;6.72;;;3.78;;
31402;SDS011;18039;52.188;21.024;2023-06-22T12:22:26;6.55;;;4.07;;
31402;SDS011;18039;52.188;21.024;2023-06-22T12:24:53;9.27;;;4.05;;
31402;SDS011;18039;52.188;21.024;2023-06-22T12:27:20;6.43;;;4.18;;
31402;SDS011;18039;52.188;21.024;2023-06-22T12:29:47;5.07;;;3.58;;
31402;SDS011;18039;52.188;21.024;2023-06-22T12:32:15;8.60;;;4.40;;
31402;SDS011;18039;52.188;21.024;2023-06-22T12:34:42;5.47;;;3.45;;
31402;SDS011;18039;52.188;21.024;2023-06-22T12:37:10;7.50;;;4.47;;
31402;SDS011;18039;52.188;21.024;2023-06-22T12:39:40;7.68;;;3.88;;
31402;SDS011;18039;52.188;21.024;2023-06-22T12:42:08;8.48;;;3.95;;
31402;SDS011;18039;52.188;21.024;2023-06-22T12:44:37;5.63;;;3.92;;
31402;SDS011;18039;52.188;21.024;2023-06-22T12:47:05;6.35;;;3.88;;
31402;SDS011;18039;52.188;21.024;2023-06-22T12:49:36;8.55;;;3.75;;
31402;SDS011;18039;52.188;21.024;2023-06-22T12:52:08;5.20;;;3.70;;
31402;SDS011;18039;52.188;21.024;2023-06-22T12:54:37;5.43;;;3.80;;
31402;SDS011;18039;52.188;21.024;2023-06-22T12:57:16;4.90;;;3.55;;
31402;SDS011;18039;52.188;21.024;2023-06-22T12:59:44;9.32;;;4.03;;
31402;SDS011;18039;52.188;21.024;2023-06-22T13:02:12;4.95;;;3.38;;
31402;SDS011;18039;52.188;21.024;2023-06-22T13:04:40;4.90;;;3.33;;
31402;SDS011;18039;52.188;21.024;2023-06-22T13:07:08;7.28;;;4.05;;
31402;SDS011;18039;52.188;21.024;2023-06-22T13:09:49;4.90;;;3.60;;
31402;SDS011;18039;52.188;21.024;2023-06-22T13:12:20;6.40;;;3.90;;
31402;SDS011;18039;52.188;21.024;2023-06-22T13:14:48;8.02;;;3.88;;
31402;SDS011;18039;52.188;21.024;2023-06-22T13:17:15;6.30;;;3.42;;
31402;SDS011;18039;52.188;21.024;2023-06-22T13:19:43;5.78;;;3.50;;
31402;SDS011;18039;52.188;21.024;2023-06-22T13:25:07;7.15;;;3.72;;
31402;SDS011;18039;52.188;21.024;2023-06-22T13:27:36;5.07;;;3.33;;
31402;SDS011;18039;52.188;21.024;2023-06-22T13:30:04;5.97;;;3.22;;
31402;SDS011;18039;52.188;21.024;2023-06-22T13:32:32;4.53;;;3.67;;
31402;SDS011;18039;52.188;21.024;2023-06-22T13:34:59;9.85;;;4.30;;
31402;SDS011;18039;52.188;21.024;2023-06-22T13:37:27;4.72;;;3.55;;
31402;SDS011;18039;52.188;21.024;2023-06-22T13:39:55;5.45;;;3.80;;
31402;SDS011;18039;52.188;21.024;2023-06-22T13:42:23;4.65;;;3.25;;
31402;SDS011;18039;52.188;21.024;2023-06-22T13:44:51;5.15;;;3.58;;
31402;SDS011;18039;52.188;21.024;2023-06-22T13:47:18;6.80;;;4.00;;
31402;SDS011;18039;52.188;21.024;2023-06-22T13:49:46;6.55;;;3.67;;
31402;SDS011;18039;52.188;21.024;2023-06-22T13:52:13;6.28;;;3.60;;
31402;SDS011;18039;52.188;21.024;2023-06-22T13:54:41;7.50;;;3.30;;
31402;SDS011;18039;52.188;21.024;2023-06-22T13:57:08;5.07;;;3.83;;
31402;SDS011;18039;52.188;21.024;2023-06-22T13:59:37;7.22;;;3.90;;
31402;SDS011;18039;52.188;21.024;2023-06-22T14:02:04;7.50;;;3.65;;
31402;SDS011;18039;52.188;21.024;2023-06-22T14:04:32;5.20;;;4.00;;
31402;SDS011;18039;52.188;21.024;2023-06-22T14:06:59;7.47;;;3.80;;
31402;SDS011;18039;52.188;21.024;2023-06-22T14:09:26;4.75;;;3.50;;
31402;SDS011;18039;52.188;21.024;2023-06-22T14:11:54;7.30;;;3.67;;
31402;SDS011;18039;52.188;21.024;2023-06-22T14:14:23;4.93;;;3.45;;
31402;SDS011;18039;52.188;21.024;2023-06-22T14:16:51;5.60;;;3.30;;
31402;SDS011;18039;52.188;21.024;2023-06-22T14:19:18;6.55;;;3.58;;
31402;SDS011;18039;52.188;21.024;2023-06-22T14:21:46;5.55;;;3.95;;
31402;SDS011;18039;52.188;21.024;2023-06-22T14:24:13;7.50;;;3.58;;
31402;SDS011;18039;52.188;21.024;2023-06-22T14:26:43;6.63;;;3.55;;
31402;SDS011;18039;52.188;21.024;2023-06-22T14:29:10;12.18;;;3.75;;
31402;SDS011;18039;52.188;21.024;2023-06-22T14:31:38;8.13;;;3.17;;